Time;durP1;ratioP1;P1;durP2;ratioP2;P2;SDS_P1;SDS_P2;PMS_P1;PMS_P2;Temp;Humidity;BMP_temperature;BMP_pressure;BME280_temperature;BME280_humidity;BME280_pressure;Samples;Min_cycle;Max_cycle;Signal;HPM_P1;HPM_P2
2022/09/04 00:00:18;;;;;;;1.73;1.10;;;16.20;99.90;;;;;;5073639;28;20044;-68
2022/09/04 00:03:11;;;;;;;1.77;1.15;;;16.20;99.90;;;;;;5067781;28;20060;-69
2022/09/04 00:05:51;;;;;;;2.72;1.25;;;16.10;99.90;;;;;;5073253;28;20048;-68
2022/09/04 00:08:38;;;;;;;1.88;1.17;;;16.10;99.90;;;;;;5068170;28;20163;-68
2022/09/04 00:11:43;;;;;;;1.98;1.10;;;16.00;99.90;;;;;;5071290;28;20337;-68
2022/09/04 00:14:33;;;;;;;2.72;1.00;;;16.00;99.90;;;;;;5072285;28;20060;-69
2022/09/04 00:17:02;;;;;;;2.47;1.27;;;16.00;99.90;;;;;;5072472;28;20045;-68
2022/09/04 00:19:42;;;;;;;2.38;1.10;;;15.90;99.90;;;;;;5072406;28;20036;-69
2022/09/04 00:22:28;;;;;;;2.08;1.00;;;15.90;99.90;;;;;;5068429;28;20032;-68
2022/09/04 00:25:24;;;;;;;1.50;0.90;;;15.90;99.90;;;;;;5072704;28;20051;-68
2022/09/04 00:27:59;;;;;;;3.75;1.50;;;15.90;99.90;;;;;;5073087;28;20123;-68
2022/09/04 00:30:25;;;;;;;3.15;1.42;;;15.90;99.90;;;;;;5071656;28;20047;-69
2022/09/04 00:32:54;;;;;;;2.00;1.13;;;15.80;99.90;;;;;;5035043;28;20041;-68
2022/09/04 00:35:30;;;;;;;1.90;1.20;;;15.80;99.90;;;;;;5063434;28;20111;-69
2022/09/04 00:38:08;;;;;;;2.05;1.10;;;15.80;99.90;;;;;;5072814;28;20057;-68
2022/09/04 00:40:40;;;;;;;3.10;1.40;;;15.80;99.90;;;;;;5073085;28;20419;-69
2022/09/04 00:43:12;;;;;;;3.13;1.33;;;15.70;99.90;;;;;;5071307;28;20048;-69
2022/09/04 00:45:55;;;;;;;2.22;1.30;;;15.70;99.90;;;;;;5072392;28;20082;-69
2022/09/04 00:48:34;;;;;;;2.65;1.40;;;15.70;99.90;;;;;;5071813;28;20389;-68
2022/09/04 00:51:34;;;;;;;2.08;1.30;;;15.70;99.90;;;;;;5055909;28;20385;-68
2022/09/04 00:54:28;;;;;;;3.55;1.50;;;15.70;99.90;;;;;;5060861;28;20055;-68
2022/09/04 00:57:28;;;;;;;2.22;1.10;;;15.60;99.90;;;;;;5072295;28;20049;-68
2022/09/04 01:00:32;;;;;;;3.13;1.27;;;15.60;99.90;;;;;;5072652;28;20040;-68
2022/09/04 01:03:23;;;;;;;2.78;1.10;;;15.50;99.90;;;;;;5060273;28;20386;-68
2022/09/04 01:06:10;;;;;;;2.70;1.30;;;15.50;99.90;;;;;;5045625;28;20102;-68
2022/09/04 01:08:45;;;;;;;3.25;1.42;;;15.50;99.90;;;;;;5069383;28;20171;-68
2022/09/04 01:11:39;;;;;;;2.97;1.30;;;15.50;99.90;;;;;;5072315;28;20040;-68
2022/09/04 01:14:22;;;;;;;2.55;1.20;;;15.50;99.90;;;;;;5022948;28;20049;-68
2022/09/04 01:17:16;;;;;;;3.78;1.40;;;15.40;99.90;;;;;;5068923;28;20047;-69
2022/09/04 01:19:51;;;;;;;2.00;1.15;;;15.50;99.90;;;;;;5071830;28;20053;-68
2022/09/04 01:22:25;;;;;;;1.70;1.10;;;15.40;99.90;;;;;;5070721;28;20048;-68
2022/09/04 01:25:13;;;;;;;1.75;1.20;;;15.40;99.90;;;;;;5070801;28;20446;-68
2022/09/04 01:28:04;;;;;;;3.05;1.30;;;15.30;99.90;;;;;;5070946;28;20045;-68
2022/09/04 01:30:39;;;;;;;3.42;1.50;;;15.30;99.90;;;;;;5071406;28;20040;-68
2022/09/04 01:33:47;;;;;;;2.50;1.40;;;15.20;99.90;;;;;;5071924;28;20041;-68
2022/09/04 01:36:25;;;;;;;2.00;1.20;;;15.20;99.90;;;;;;5069049;28;20052;-68
2022/09/04 01:38:55;;;;;;;3.40;1.55;;;15.10;99.90;;;;;;5071583;28;20111;-67
2022/09/04 01:41:37;;;;;;;2.22;1.30;;;15.10;99.90;;;;;;5071608;28;20032;-68
2022/09/04 01:44:05;;;;;;;1.90;1.20;;;15.00;99.90;;;;;;5071117;28;20120;-69
2022/09/04 01:46:59;;;;;;;4.57;1.30;;;15.00;99.90;;;;;;5053503;28;20064;-68
2022/09/04 01:49:35;;;;;;;1.90;1.10;;;15.00;99.90;;;;;;5069931;28;20079;-68
2022/09/04 01:52:06;;;;;;;2.78;1.45;;;15.00;99.90;;;;;;5070344;28;20109;-68
2022/09/04 01:54:41;;;;;;;2.78;1.50;;;15.00;99.90;;;;;;5069544;28;20076;-68
2022/09/04 01:57:22;;;;;;;2.80;1.30;;;15.00;99.90;;;;;;5071670;28;20052;-68
2022/09/04 02:00:00;;;;;;;2.75;1.30;;;15.00;99.90;;;;;;5071600;28;20040;-68
2022/09/04 02:03:10;;;;;;;3.13;1.50;;;15.00;99.90;;;;;;5070149;28;20399;-69
2022/09/04 02:05:43;;;;;;;2.15;1.23;;;15.00;99.90;;;;;;5070073;28;20044;-68
2022/09/04 02:08:49;;;;;;;3.10;1.45;;;14.90;99.90;;;;;;5070312;28;20068;-68
2022/09/04 02:11:29;;;;;;;2.10;1.50;;;14.90;99.90;;;;;;5068633;28;20075;-68
2022/09/04 02:14:14;;;;;;;2.60;1.48;;;14.90;99.90;;;;;;5065723;28;20098;-68
2022/09/04 02:17:06;;;;;;;3.20;1.60;;;14.90;99.90;;;;;;5069541;28;20465;-68
2022/09/04 02:19:38;;;;;;;3.08;1.40;;;14.80;99.90;;;;;;5071069;28;20048;-68
2022/09/04 02:22:14;;;;;;;3.00;1.42;;;14.80;99.90;;;;;;5070167;28;20028;-68
2022/09/04 02:24:58;;;;;;;2.72;1.45;;;14.70;99.90;;;;;;5068972;28;20040;-68
2022/09/04 02:27:48;;;;;;;2.70;1.65;;;14.70;99.90;;;;;;5068566;28;20485;-68
2022/09/04 02:30:17;;;;;;;2.20;1.52;;;14.70;99.90;;;;;;5069688;28;20052;-68
2022/09/04 02:32:58;;;;;;;2.47;1.40;;;14.60;99.90;;;;;;5070768;28;20039;-69
2022/09/04 02:35:41;;;;;;;2.42;1.67;;;14.60;99.90;;;;;;5069916;28;20049;-69
2022/09/04 02:38:48;;;;;;;2.17;1.40;;;14.50;99.90;;;;;;5071041;28;20051;-68
2022/09/04 02:41:18;;;;;;;;;;;14.50;99.90;;;;;;5067195;28;20378;-68
2022/09/04 02:44:04;;;;;;;2.28;1.40;;;14.50;99.90;;;;;;5058194;28;20249;-69
2022/09/04 02:46:46;;;;;;;2.50;1.45;;;14.50;99.90;;;;;;5069486;28;20053;-69
2022/09/04 02:49:29;;;;;;;2.28;1.52;;;14.40;99.90;;;;;;5070335;28;20044;-68
2022/09/04 02:52:40;;;;;;;3.20;1.73;;;14.40;99.90;;;;;;5069664;28;20457;-68
2022/09/04 02:55:43;;;;;;;2.25;1.60;;;14.30;99.90;;;;;;5064720;28;20063;-69
2022/09/04 02:58:16;;;;;;;2.50;1.70;;;14.10;99.90;;;;;;5051145;28;20182;-68
2022/09/04 03:01:22;;;;;;;3.70;1.70;;;14.00;99.90;;;;;;5060066;28;20028;-69
2022/09/04 03:04:07;;;;;;;2.63;1.52;;;13.90;99.90;;;;;;5066201;28;20044;-69
2022/09/04 03:06:53;;;;;;;3.13;1.70;;;13.80;99.90;;;;;;5057988;28;20059;-68
2022/09/04 03:09:26;;;;;;;2.58;1.60;;;13.70;99.90;;;;;;5070642;28;20087;-68
2022/09/04 03:12:24;;;;;;;3.30;1.52;;;13.60;99.90;;;;;;5070696;28;20036;-68
2022/09/04 03:15:00;;;;;;;2.30;1.48;;;13.60;99.90;;;;;;5070715;28;20044;-69
2022/09/04 03:17:33;;;;;;;3.17;1.70;;;13.60;99.90;;;;;;5069696;28;20045;-69
2022/09/04 03:20:08;;;;;;;3.47;1.70;;;13.60;99.90;;;;;;5070697;28;20043;-69
2022/09/04 03:23:10;;;;;;;6.10;2.00;;;13.60;99.90;;;;;;5069866;28;20053;-69
2022/09/04 03:26:11;;;;;;;2.92;1.65;;;13.70;99.90;;;;;;5061395;28;20091;-69
2022/09/04 03:28:58;;;;;;;3.40;1.88;;;13.60;99.90;;;;;;5012958;28;20520;-69
2022/09/04 03:31:30;;;;;;;3.55;1.98;;;13.60;99.90;;;;;;5066885;28;20491;-69
2022/09/04 03:34:01;;;;;;;2.38;1.80;;;13.60;99.90;;;;;;5069130;28;20052;-69
2022/09/04 03:36:39;;;;;;;2.50;1.75;;;13.60;99.90;;;;;;5069535;28;20036;-69
2022/09/04 03:39:23;;;;;;;3.50;1.80;;;13.60;99.90;;;;;;5070679;28;20040;-69
2022/09/04 03:42:31;;;;;;;2.42;1.88;;;13.60;99.90;;;;;;5081566;28;20068;-69
2022/09/04 03:45:25;;;;;;;3.20;2.00;;;13.60;99.90;;;;;;5055239;28;20107;-69
2022/09/04 03:47:56;;;;;;;4.88;2.10;;;13.60;99.90;;;;;;5072266;28;20040;-68
2022/09/04 03:50:27;;;;;;;3.25;1.88;;;13.60;99.90;;;;;;5072627;28;20036;-69
2022/09/04 03:52:55;;;;;;;5.28;2.03;;;13.60;99.90;;;;;;5073854;28;20044;-69
2022/09/04 03:55:21;;;;;;;2.75;1.90;;;13.60;99.90;;;;;;5073466;28;20053;-69
2022/09/04 03:57:46;;;;;;;3.95;1.90;;;13.60;99.90;;;;;;5071487;28;20067;-69
2022/09/04 04:00:17;;;;;;;2.95;1.90;;;13.60;99.90;;;;;;5071863;28;20036;-68
2022/09/04 04:03:04;;;;;;;2.88;2.10;;;13.50;99.90;;;;;;5073470;28;20367;-69
2022/09/04 04:05:37;;;;;;;3.55;2.15;;;13.50;99.90;;;;;;5072149;28;20079;-69
2022/09/04 04:08:20;;;;;;;2.97;2.15;;;13.50;99.90;;;;;;5073383;28;20051;-69
2022/09/04 04:10:58;;;;;;;3.17;2.17;;;13.50;99.90;;;;;;5060183;28;20052;-69
2022/09/04 04:13:33;;;;;;;4.50;2.55;;;13.40;99.90;;;;;;5073284;28;20079;-69
2022/09/04 04:16:07;;;;;;;3.20;2.03;;;13.40;99.90;;;;;;5072157;28;20053;-68
2022/09/04 04:18:42;;;;;;;3.28;2.28;;;13.40;99.90;;;;;;5071602;28;20048;-69
2022/09/04 04:21:54;;;;;;;2.95;2.03;;;13.40;99.90;;;;;;5070076;28;20043;-69
2022/09/04 04:24:38;;;;;;;3.42;2.00;;;13.40;99.90;;;;;;5073672;28;20551;-69
2022/09/04 04:27:16;;;;;;;4.15;2.05;;;13.40;99.90;;;;;;5072112;28;20049;-69
2022/09/04 04:30:05;;;;;;;2.75;1.98;;;13.40;99.90;;;;;;5073060;28;20045;-69
2022/09/04 04:32:50;;;;;;;2.70;2.10;;;13.40;99.90;;;;;;5081255;28;20385;-68
2022/09/04 04:35:40;;;;;;;3.30;2.30;;;13.40;99.90;;;;;;5071686;28;20131;-69
2022/09/04 04:38:30;;;;;;;2.70;2.10;;;13.40;99.90;;;;;;5073099;28;20048;-69
2022/09/04 04:41:10;;;;;;;2.83;2.13;;;13.40;99.90;;;;;;5071569;28;20137;-69
2022/09/04 04:44:14;;;;;;;4.93;2.10;;;13.40;99.90;;;;;;5070566;28;20469;-69
2022/09/04 04:47:15;;;;;;;3.38;2.03;;;13.30;99.90;;;;;;5071242;28;20098;-69
2022/09/04 04:50:26;;;;;;;3.65;2.10;;;13.30;99.90;;;;;;5071786;28;20056;-69
2022/09/04 04:52:57;;;;;;;4.30;2.10;;;13.40;99.90;;;;;;5055934;28;20461;-69
2022/09/04 04:55:52;;;;;;;3.42;1.80;;;13.30;99.90;;;;;;5072457;28;20056;-69
2022/09/04 04:58:29;;;;;;;3.40;2.20;;;13.30;99.90;;;;;;5048559;28;20048;-69
2022/09/04 05:01:17;;;;;;;3.08;2.38;;;13.30;99.90;;;;;;5060229;28;20050;-69
2022/09/04 05:04:32;;;;;;;3.38;2.08;;;13.20;99.90;;;;;;5062368;28;20170;-69
2022/09/04 05:07:13;;;;;;;3.03;2.15;;;13.20;99.90;;;;;;5062170;28;20052;-69
2022/09/04 05:09:49;;;;;;;3.85;2.22;;;13.20;99.90;;;;;;5072494;28;20056;-69
2022/09/04 05:12:56;;;;;;;3.03;1.95;;;13.20;99.90;;;;;;5072117;28;20059;-69
2022/09/04 05:15:33;;;;;;;3.40;2.13;;;13.20;99.90;;;;;;5072133;28;20037;-68
2022/09/04 05:18:18;;;;;;;4.25;2.30;;;13.20;99.90;;;;;;5071667;28;20037;-68
2022/09/04 05:20:57;;;;;;;2.63;1.92;;;13.20;99.90;;;;;;5070997;28;20053;-69
2022/09/04 05:23:40;;;;;;;2.90;2.17;;;13.20;99.90;;;;;;5069715;28;20084;-69
2022/09/04 05:26:06;;;;;;;3.45;2.50;;;13.30;99.90;;;;;;5070228;28;20056;-69
2022/09/04 05:29:00;;;;;;;3.33;2.33;;;13.30;99.90;;;;;;5071605;28;20049;-69
2022/09/04 05:31:45;;;;;;;3.42;2.05;;;13.40;99.90;;;;;;5071152;28;20040;-69
2022/09/04 05:34:38;;;;;;;3.67;2.10;;;13.40;99.90;;;;;;5071727;28;20040;-69
2022/09/04 05:37:21;;;;;;;2.72;1.80;;;13.50;99.90;;;;;;5070283;28;20123;-69
2022/09/04 05:40:22;;;;;;;4.32;2.35;;;13.50;99.90;;;;;;5071774;28;20036;-69
2022/09/04 05:43:14;;;;;;;3.83;2.20;;;13.50;99.90;;;;;;5070608;28;20040;-69
2022/09/04 05:45:57;;;;;;;3.70;2.25;;;13.60;99.90;;;;;;5071815;28;20047;-69
2022/09/04 05:48:44;;;;;;;3.40;2.40;;;13.60;99.90;;;;;;5070909;28;20084;-63
2022/09/04 05:51:33;;;;;;;2.22;1.88;;;13.70;99.90;;;;;;5069831;28;20536;-63
2022/09/04 05:54:35;;;;;;;6.90;2.08;;;13.90;99.90;;;;;;5061347;28;20051;-63
2022/09/04 05:57:50;;;;;;;4.22;2.42;;;13.80;99.90;;;;;;5058316;28;20043;-63
2022/09/04 06:00:18;;;;;;;3.30;2.20;;;13.90;99.90;;;;;;5066113;28;20056;-63
2022/09/04 06:03:05;;;;;;;3.17;2.30;;;13.90;99.90;;;;;;5070735;28;20075;-63
2022/09/04 06:05:55;;;;;;;3.20;2.08;;;14.10;99.90;;;;;;5070944;28;20047;-63
2022/09/04 06:08:38;;;;;;;3.55;2.30;;;14.20;99.90;;;;;;5071257;28;20048;-63
2022/09/04 06:11:25;;;;;;;3.55;2.20;;;14.30;99.90;;;;;;5071697;28;20378;-62
2022/09/04 06:14:24;;;;;;;3.60;2.10;;;14.40;99.90;;;;;;5063936;28;20036;-63
2022/09/04 06:16:59;;;;;;;2.75;2.28;;;14.60;99.90;;;;;;5071339;28;20051;-62
2022/09/04 06:20:14;;;;;;;2.40;1.90;;;14.70;99.90;;;;;;5070693;28;20040;-62
2022/09/04 06:23:03;;;;;;;3.28;2.00;;;14.80;99.90;;;;;;5059614;28;20537;-62
2022/09/04 06:26:06;;;;;;;3.22;2.20;;;15.00;99.90;;;;;;5070571;28;20044;-63
2022/09/04 06:28:54;;;;;;;2.80;2.05;;;15.20;99.90;;;;;;5053276;28;20055;-62
2022/09/04 06:31:20;;;;;;;2.70;2.10;;;15.30;99.90;;;;;;5070976;28;20044;-61
2022/09/04 06:34:07;;;;;;;3.50;2.40;;;15.40;99.90;;;;;;5070715;28;20496;-62
2022/09/04 06:37:10;;;;;;;6.32;2.47;;;15.50;99.90;;;;;;5071058;28;20044;-62
2022/09/04 06:39:47;;;;;;;3.45;2.30;;;15.60;99.90;;;;;;5057233;28;20036;-62
2022/09/04 06:42:43;;;;;;;2.78;2.08;;;15.70;99.90;;;;;;5070697;28;20561;-61
2022/09/04 06:45:41;;;;;;;2.97;2.15;;;15.80;99.90;;;;;;5070785;28;20041;-63
2022/09/04 06:48:20;;;;;;;3.17;2.17;;;15.80;99.90;;;;;;5067842;28;20346;-63
2022/09/04 06:51:01;;;;;;;3.05;1.90;;;15.90;99.90;;;;;;5051101;28;20037;-63
2022/09/04 06:53:53;;;;;;;2.75;1.98;;;16.00;99.90;;;;;;5055702;28;20044;-64
2022/09/04 06:57:06;;;;;;;2.83;2.00;;;16.10;99.90;;;;;;5069608;28;20160;-63
2022/09/04 06:59:59;;;;;;;3.00;1.92;;;16.20;99.90;;;;;;5057327;28;20057;-64
2022/09/04 07:02:49;;;;;;;3.40;2.00;;;16.30;99.90;;;;;;5070203;28;20064;-62
2022/09/04 07:05:42;;;;;;;4.03;1.85;;;16.50;99.90;;;;;;5062978;28;20049;-62
2022/09/04 07:08:26;;;;;;;2.78;1.77;;;16.70;99.90;;;;;;5072698;28;20048;-62
2022/09/04 07:11:11;;;;;;;3.38;1.88;;;16.80;99.90;;;;;;5074322;28;20381;-62
2022/09/04 07:13:39;;;;;;;2.80;1.65;;;16.90;99.90;;;;;;5054907;28;20041;-63
2022/09/04 07:16:24;;;;;;;3.38;1.80;;;17.00;99.90;;;;;;5074396;28;20040;-62
2022/09/04 07:19:06;;;;;;;3.90;2.42;;;17.10;99.90;;;;;;5073669;28;20174;-63
2022/09/04 07:21:48;;;;;;;3.45;1.67;;;17.30;99.90;;;;;;5065081;28;20028;-62
2022/09/04 07:24:41;;;;;;;2.53;1.60;;;17.40;99.90;;;;;;5061138;28;20045;-62
2022/09/04 07:27:35;;;;;;;2.67;1.70;;;17.50;99.90;;;;;;5060145;28;20063;-62
2022/09/04 07:30:05;;;;;;;2.60;1.70;;;17.60;99.90;;;;;;5060427;28;20212;-62
2022/09/04 07:32:48;;;;;;;3.38;1.67;;;17.70;99.90;;;;;;5072208;28;20037;-62
2022/09/04 07:35:40;;;;;;;2.20;1.35;;;17.80;99.90;;;;;;5062918;28;20048;-63
2022/09/04 07:38:31;;;;;;;2.08;1.25;;;18.00;99.90;;;;;;5062265;28;20043;-63
2022/09/04 07:40:59;;;;;;;2.75;1.63;;;18.20;99.90;;;;;;5070769;28;20469;-63
2022/09/04 07:43:38;;;;;;;3.90;1.90;;;18.30;99.90;;;;;;5058744;28;20041;-63
2022/09/04 07:46:28;;;;;;;3.08;1.55;;;18.40;99.90;;;;;;5066423;28;20392;-63
2022/09/04 07:49:08;;;;;;;3.78;1.40;;;18.50;99.90;;;;;;5070340;28;20377;-63
2022/09/04 07:52:06;;;;;;;3.50;1.60;;;18.50;99.90;;;;;;5059329;28;20047;-63
2022/09/04 07:55:03;;;;;;;3.10;1.42;;;18.60;99.90;;;;;;5050705;28;20151;-63
2022/09/04 07:57:41;;;;;;;3.00;1.75;;;18.70;99.90;;;;;;5064715;28;20048;-63
2022/09/04 08:00:12;;;;;;;2.25;1.30;;;18.80;99.90;;;;;;5053504;28;20048;-63
2022/09/04 08:02:50;;;;;;;2.35;1.40;;;19.00;99.90;;;;;;5052737;28;20052;-63
2022/09/04 08:05:34;;;;;;;2.95;1.50;;;19.10;99.90;;;;;;5053031;28;20094;-65
2022/09/04 08:08:37;;;;;;;1.95;1.38;;;19.20;99.90;;;;;;5054854;28;20048;-64
2022/09/04 08:11:21;;;;;;;4.32;1.50;;;19.40;99.90;;;;;;5035638;28;20082;-63
2022/09/04 08:14:11;;;;;;;2.13;1.30;;;19.50;99.90;;;;;;5052598;28;20462;-63
2022/09/04 08:16:51;;;;;;;3.53;1.63;;;19.60;99.90;;;;;;5058571;28;20418;-63
2022/09/04 08:19:25;;;;;;;2.42;1.48;;;19.70;99.90;;;;;;5061430;28;20393;-63
2022/09/04 08:21:52;;;;;;;2.22;1.48;;;19.80;99.90;;;;;;5055484;28;20040;-64
2022/09/04 08:24:48;;;;;;;1.95;1.40;;;19.90;99.90;;;;;;5053904;28;20047;-63
2022/09/04 08:27:29;;;;;;;4.90;1.70;;;20.00;99.90;;;;;;5059287;28;20057;-63
2022/09/04 08:30:03;;;;;;;2.30;1.40;;;20.00;99.90;;;;;;5072938;28;20587;-63
2022/09/04 08:32:50;;;;;;;2.70;1.50;;;20.10;99.90;;;;;;5062536;28;20028;-64
2022/09/04 08:35:43;;;;;;;2.63;1.60;;;20.20;99.90;;;;;;5057215;28;20045;-63
2022/09/04 08:38:34;;;;;;;3.00;1.40;;;20.40;99.90;;;;;;5057847;28;20181;-63
2022/09/04 08:41:34;;;;;;;2.33;1.50;;;20.40;99.90;;;;;;5055735;28;20037;-63
2022/09/04 08:44:27;;;;;;;2.33;1.58;;;20.50;99.90;;;;;;5055361;28;20044;-63
2022/09/04 08:47:21;;;;;;;3.55;1.65;;;20.60;99.90;;;;;;5060286;28;20124;-62
2022/09/04 08:50:28;;;;;;;2.30;1.55;;;20.70;99.90;;;;;;5054886;28;20459;-62
2022/09/04 08:53:18;;;;;;;2.47;1.70;;;20.70;99.90;;;;;;5058150;28;20127;-62
2022/09/04 08:55:57;;;;;;;3.20;1.70;;;20.90;99.90;;;;;;5058313;28;20063;-62
2022/09/04 08:58:26;;;;;;;2.33;1.50;;;21.00;99.90;;;;;;5058327;28;20401;-62
2022/09/04 09:01:20;;;;;;;3.05;1.65;;;21.10;99.90;;;;;;5051953;28;20537;-62
2022/09/04 09:03:56;;;;;;;2.47;1.50;;;21.20;99.90;;;;;;5056207;28;20534;-62
2022/09/04 09:06:24;;;;;;;2.72;1.50;;;21.30;99.90;;;;;;5068275;28;20537;-63
2022/09/04 09:09:12;;;;;;;3.67;1.60;;;21.40;99.90;;;;;;5051862;28;20095;-64
2022/09/04 09:11:49;;;;;;;2.40;1.38;;;21.50;99.90;;;;;;5052224;28;20052;-62
2022/09/04 09:14:15;;;;;;;4.57;1.73;;;21.60;99.90;;;;;;5051225;28;20572;-63
2022/09/04 09:17:11;;;;;;;1.85;1.30;;;21.90;99.90;;;;;;5067414;28;20076;-63
2022/09/04 09:19:59;;;;;;;2.90;1.30;;;22.00;99.90;;;;;;5071307;28;20090;-62
2022/09/04 09:22:49;;;;;;;3.40;1.80;;;22.00;99.90;;;;;;5051740;28;20377;-61
2022/09/04 09:25:19;;;;;;;3.83;1.40;;;22.10;99.90;;;;;;5066564;28;20382;-61
2022/09/04 09:28:11;;;;;;;3.25;1.40;;;22.10;99.90;;;;;;5061931;28;20543;-63
2022/09/04 09:31:08;;;;;;;2.40;1.35;;;22.20;99.90;;;;;;5068253;28;20453;-61
2022/09/04 09:34:10;;;;;;;2.90;1.50;;;22.30;99.90;;;;;;5051386;28;20041;-62
2022/09/04 09:36:50;;;;;;;2.03;1.17;;;22.40;99.90;;;;;;5061359;28;20075;-61
2022/09/04 09:39:37;;;;;;;2.92;1.40;;;22.60;99.90;;;;;;5052707;28;20433;-63
2022/09/04 09:42:14;;;;;;;2.55;1.38;;;22.70;99.90;;;;;;5071011;28;20041;-63
2022/09/04 09:45:12;;;;;;;2.20;1.60;;;22.80;99.90;;;;;;5063080;28;20396;-63
2022/09/04 09:47:49;;;;;;;3.00;1.40;;;23.00;99.90;;;;;;5066337;28;20138;-63
2022/09/04 09:50:19;;;;;;;2.22;1.00;;;23.10;99.90;;;;;;5065386;28;20044;-63
2022/09/04 09:53:20;;;;;;;3.17;1.10;;;23.30;99.90;;;;;;5066951;28;20047;-63
2022/09/04 09:56:24;;;;;;;3.15;1.10;;;23.40;99.90;;;;;;5056835;28;20064;-63
2022/09/04 09:59:23;;;;;;;2.33;1.25;;;23.40;99.90;;;;;;5060363;28;20391;-63
2022/09/04 10:02:11;;;;;;;2.92;1.50;;;23.50;99.90;;;;;;5057555;28;20036;-64
2022/09/04 10:04:55;;;;;;;2.50;1.30;;;23.50;99.90;;;;;;5056840;28;20052;-62
2022/09/04 10:07:28;;;;;;;1.67;1.10;;;23.60;99.90;;;;;;5051015;28;20465;-64
2022/09/04 10:10:17;;;;;;;1.85;1.13;;;23.60;99.90;;;;;;5060140;28;20059;-63
2022/09/04 10:13:34;;;;;;;1.90;1.10;;;23.70;99.90;;;;;;5062710;28;20045;-62
2022/09/04 10:16:21;;;;;;;1.55;1.10;;;23.70;99.90;;;;;;5055164;28;20469;-63
2022/09/04 10:19:06;;;;;;;2.63;1.13;;;23.80;99.90;;;;;;5065693;28;20536;-63
2022/09/04 10:21:45;;;;;;;3.50;1.30;;;23.90;99.90;;;;;;5058447;28;20385;-63
2022/09/04 10:24:25;;;;;;;2.03;1.10;;;23.90;99.90;;;;;;5056356;28;20053;-62
2022/09/04 10:27:25;;;;;;;1.60;1.08;;;23.90;99.90;;;;;;5060607;28;20041;-62
2022/09/04 10:30:02;;;;;;;2.00;1.10;;;24.00;99.90;;;;;;5050870;28;20051;-62
2022/09/04 10:32:53;;;;;;;2.72;1.17;;;24.10;99.90;;;;;;5052331;28;20043;-62
2022/09/04 10:35:45;;;;;;;1.73;1.10;;;24.20;99.90;;;;;;5053573;28;20392;-62
2022/09/04 10:38:13;;;;;;;1.80;1.20;;;24.20;99.90;;;;;;5044344;28;20403;-63
2022/09/04 10:40:43;;;;;;;1.70;1.10;;;24.30;99.90;;;;;;5064321;28;20048;-62
2022/09/04 10:43:44;;;;;;;1.75;0.88;;;24.30;99.90;;;;;;5052967;28;20052;-62
2022/09/04 10:46:27;;;;;;;3.70;1.45;;;24.40;99.90;;;;;;5056014;28;20122;-62
2022/09/04 10:49:14;;;;;;;1.52;1.00;;;24.30;99.90;;;;;;5054199;28;20047;-62
2022/09/04 10:51:52;;;;;;;2.78;1.00;;;24.40;99.90;;;;;;5053575;28;20092;-62
2022/09/04 10:54:56;;;;;;;2.95;1.20;;;24.50;99.90;;;;;;5054161;28;20563;-62
2022/09/04 10:57:36;;;;;;;2.20;1.20;;;24.50;99.90;;;;;;5063078;28;20048;-63
2022/09/04 11:00:03;;;;;;;1.83;1.00;;;24.50;99.90;;;;;;5074290;28;20127;-64
2022/09/04 11:03:19;;;;;;;1.92;1.10;;;24.50;99.90;;;;;;5061865;28;20068;-63
2022/09/04 11:06:01;;;;;;;2.90;1.20;;;24.60;99.90;;;;;;5051837;28;20057;-63
2022/09/04 11:08:35;;;;;;;1.70;1.10;;;24.60;99.90;;;;;;5066587;28;20073;-60
2022/09/04 11:11:09;;;;;;;2.53;1.20;;;24.70;99.90;;;;;;5054303;28;20043;-62
2022/09/04 11:14:04;;;;;;;1.88;1.15;;;24.70;99.90;;;;;;5065760;28;20048;-62
2022/09/04 11:16:52;;;;;;;2.35;1.17;;;24.70;99.90;;;;;;5071799;28;20508;-62
2022/09/04 11:20:14;;;;;;;2.88;1.40;;;24.60;99.90;;;;;;5065160;28;20367;-63
2022/09/04 11:23:14;;;;;;;2.88;1.20;;;24.60;99.90;;;;;;5060656;28;20480;-63
2022/09/04 11:26:38;;;;;;;2.20;1.10;;;24.60;99.90;;;;;;5064456;28;20036;-63
2022/09/04 11:29:23;;;;;;;2.10;1.30;;;24.80;99.90;;;;;;5029875;28;20077;-63
2022/09/04 11:31:57;;;;;;;1.90;1.20;;;24.90;99.90;;;;;;5005774;28;20059;-63
2022/09/04 11:34:38;;;;;;;2.05;1.23;;;24.90;99.90;;;;;;5043554;28;20053;-63
2022/09/04 11:37:09;;;;;;;2.03;1.15;;;24.90;99.90;;;;;;5058747;28;20052;-63
2022/09/04 11:40:02;;;;;;;3.50;1.40;;;25.00;99.90;;;;;;5058484;28;20044;-63
2022/09/04 11:42:49;;;;;;;2.55;1.40;;;25.00;99.90;;;;;;5059944;28;20045;-62
2022/09/04 11:45:30;;;;;;;1.70;1.08;;;25.00;99.90;;;;;;5062673;28;20044;-62
2022/09/04 11:47:59;;;;;;;2.63;1.10;;;25.00;99.90;;;;;;5052074;28;20120;-63
2022/09/04 11:50:33;;;;;;;1.73;1.15;;;25.00;99.90;;;;;;5054234;28;20037;-62
2022/09/04 11:53:07;;;;;;;2.40;1.20;;;25.00;99.90;;;;;;5064304;28;20044;-62
2022/09/04 11:56:07;;;;;;;4.10;1.38;;;25.00;99.90;;;;;;5056200;28;20061;-61
2022/09/04 11:58:45;;;;;;;2.17;1.30;;;25.10;99.90;;;;;;5067846;28;20048;-61
2022/09/04 12:01:25;;;;;;;4.28;1.30;;;25.10;99.90;;;;;;5070502;28;20067;-62
2022/09/04 12:04:03;;;;;;;2.00;1.10;;;25.10;99.90;;;;;;5070486;28;20462;-62
2022/09/04 12:06:58;;;;;;;2.60;1.50;;;25.20;99.90;;;;;;5072131;28;20050;-63
2022/09/04 12:09:35;;;;;;;2.70;1.10;;;25.30;99.90;;;;;;5070897;28;20537;-62
2022/09/04 12:12:32;;;;;;;2.53;1.30;;;25.30;99.90;;;;;;5070425;28;20032;-62
2022/09/04 12:15:09;;;;;;;2.03;1.10;;;25.30;99.90;;;;;;5069605;28;20161;-62
2022/09/04 12:18:02;;;;;;;5.47;1.40;;;25.30;99.90;;;;;;5069022;28;20473;-62
2022/09/04 12:20:54;;;;;;;2.20;1.33;;;25.30;99.90;;;;;;5071447;28;20460;-62
2022/09/04 12:23:42;;;;;;;2.30;1.30;;;25.30;99.90;;;;;;5069947;28;20041;-62
2022/09/04 12:26:38;;;;;;;3.10;1.20;;;25.40;99.90;;;;;;5070974;28;20049;-62
2022/09/04 12:29:27;;;;;;;3.38;1.30;;;25.60;99.90;;;;;;5070739;28;20097;-62
2022/09/04 12:31:58;;;;;;;2.85;1.10;;;25.60;99.90;;;;;;5069908;28;20032;-62
2022/09/04 12:34:41;;;;;;;2.75;1.17;;;25.50;99.90;;;;;;5071635;28;20420;-62
2022/09/04 12:37:26;;;;;;;1.90;1.00;;;25.60;99.90;;;;;;5071770;28;20135;-63
2022/09/04 12:40:13;;;;;;;2.40;1.30;;;25.60;99.90;;;;;;5069964;28;20045;-63
2022/09/04 12:42:44;;;;;;;1.85;1.30;;;25.70;99.90;;;;;;5069477;28;20101;-62
2022/09/04 12:45:28;;;;;;;4.03;1.38;;;25.60;99.90;;;;;;5072259;28;20085;-62
2022/09/04 12:48:02;;;;;;;2.50;1.23;;;25.60;99.90;;;;;;5069815;28;20037;-63
2022/09/04 12:50:49;;;;;;;2.20;1.33;;;25.50;99.90;;;;;;5072440;28;20123;-63
2022/09/04 12:53:52;;;;;;;1.90;1.20;;;25.50;99.90;;;;;;5069945;28;20519;-63
2022/09/04 12:56:47;;;;;;;1.88;1.10;;;25.50;99.90;;;;;;5070436;28;20063;-62
2022/09/04 12:59:38;;;;;;;1.90;1.25;;;25.50;99.90;;;;;;5069637;28;20049;-63
2022/09/04 13:02:34;;;;;;;1.70;1.10;;;25.60;99.90;;;;;;5071013;28;20081;-63
2022/09/04 13:05:18;;;;;;;2.08;1.20;;;25.60;99.90;;;;;;5068602;28;20041;-64
2022/09/04 13:07:53;;;;;;;2.50;1.15;;;25.60;99.90;;;;;;5070709;28;20044;-63
2022/09/04 13:10:37;;;;;;;2.00;1.13;;;25.60;99.90;;;;;;5069952;28;20477;-63
2022/09/04 13:13:41;;;;;;;2.00;1.20;;;25.60;99.90;;;;;;5069535;28;20287;-63
2022/09/04 13:16:19;;;;;;;2.17;1.15;;;25.60;99.90;;;;;;5071009;28;20051;-61
2022/09/04 13:19:07;;;;;;;1.85;1.23;;;25.50;99.90;;;;;;5080274;28;20048;-62
2022/09/04 13:21:54;;;;;;;2.70;1.20;;;25.50;99.90;;;;;;5069130;28;20461;-63
2022/09/04 13:24:25;;;;;;;1.98;1.25;;;25.60;99.90;;;;;;5069442;28;20044;-62
2022/09/04 13:27:28;;;;;;;2.17;1.17;;;25.60;99.90;;;;;;5071196;28;20040;-62
2022/09/04 13:30:20;;;;;;;2.00;1.10;;;25.60;99.90;;;;;;5068707;28;20116;-62
2022/09/04 13:33:41;;;;;;;2.15;1.50;;;25.60;99.90;;;;;;5070570;28;20040;-62
2022/09/04 13:36:17;;;;;;;1.90;1.27;;;25.70;99.90;;;;;;5061499;28;20060;-62
2022/09/04 13:39:15;;;;;;;2.75;1.20;;;25.70;99.90;;;;;;5071173;28;20389;-63
2022/09/04 13:42:34;;;;;;;1.83;1.10;;;25.70;99.90;;;;;;5077213;28;20044;-62
2022/09/04 13:45:04;;;;;;;1.90;1.15;;;25.70;99.90;;;;;;5048816;28;20095;-62
2022/09/04 13:47:40;;;;;;;2.28;1.20;;;25.80;99.90;;;;;;5067337;28;20056;-63
2022/09/04 13:50:19;;;;;;;1.92;1.00;;;25.80;99.90;;;;;;5070667;28;20576;-62
2022/09/04 13:52:51;;;;;;;4.03;1.25;;;25.70;99.90;;;;;;5071511;28;20080;-62
2022/09/04 13:55:28;;;;;;;2.63;1.30;;;25.60;99.90;;;;;;5071246;28;20083;-62
2022/09/04 13:58:09;;;;;;;2.33;1.20;;;25.50;99.90;;;;;;5071476;28;20048;-62
2022/09/04 14:00:39;;;;;;;2.53;1.30;;;25.50;99.90;;;;;;5071314;28;20424;-62
2022/09/04 14:03:10;;;;;;;1.90;1.20;;;25.50;99.90;;;;;;5071490;28;20257;-62
2022/09/04 14:05:37;;;;;;;2.60;1.10;;;25.50;99.90;;;;;;5071769;28;20092;-62
2022/09/04 14:08:13;;;;;;;1.67;1.08;;;25.60;99.90;;;;;;5071030;28;20052;-62
2022/09/04 14:11:04;;;;;;;1.90;1.20;;;25.70;99.90;;;;;;5071114;28;20044;-63
2022/09/04 14:14:09;;;;;;;1.85;1.25;;;25.70;99.90;;;;;;5071289;28;20056;-62
2022/09/04 14:16:38;;;;;;;2.42;1.25;;;25.80;99.90;;;;;;5071425;28;20044;-64
2022/09/04 14:19:16;;;;;;;2.03;1.25;;;25.80;99.90;;;;;;5069636;28;20094;-63
2022/09/04 14:22:18;;;;;;;2.33;1.25;;;25.80;99.90;;;;;;5071129;28;20131;-62